Date,TemperatureHighF,TemperatureAvgF,TemperatureLowF,DewpointHighF,DewpointAvgF,DewpointLowF,HumidityHigh,HumidityAvg,HumidityLow,PressureMaxIn,PressureMinIn,WindSpeedMaxMPH,WindSpeedAvgMPH,GustSpeedMaxMPH,PrecipitationSumIn
2013-2-1,61,44,31,38,28,17,93,59,32,0.00,40.00,13,8,27,0.01
2013-2-2,57,45,36,32,24,19,67,44,27,0.00,40.00,14,9,29,0.00
2013-2-3,54,42,32,26,24,20,73,50,30,0.00,40.00,12,6,19,0.00
2013-2-4,57,44,36,26,22,15,59,43,23,0.00,40.00,12,6,22,0.00
2013-2-5,43,36,31,34,27,18,98,74,36,0.00,40.00,20,8,30,0.11
2013-2-6,47,36,31,31,29,21,98,77,41,0.00,40.00,12,6,28,0.02
2013-2-7,37,31,26,30,27,21,97,86,53,0.00,40.00,15,7,34,0.23
2013-2-8,34,27,21,27,24,19,97,88,70,0.00,40.00,14,6,24,0.05
2013-2-9,39,29,20,29,24,17,96,83,57,0.00,40.00,10,5,19,0.01
2013-2-10,46,34,25,30,27,25,98,78,44,0.00,40.00,10,6,18,0.00
2013-2-11,43,33,27,31,28,24,98,84,63,0.00,40.00,12,7,23,0.01
2013-2-12,43,34,26,34,30,25,98,89,67,0.00,40.00,13,6,22,0.01
2013-2-13,49,39,32,36,33,31,98,82,58,0.00,40.00,13,7,26,0.00
2013-2-14,54,41,32,37,32,27,98,74,39,0.00,40.00,12,7,20,0.00
2013-2-15,63,50,40,31,27,22,57,42,21,0.00,40.00,15,10,35,0.00
2013-2-16,52,41,29,32,28,24,93,62,39,0.00,40.00,18,9,39,0.00
2013-2-17,45,34,25,27,23,16,97,69,34,0.00,40.00,11,5,21,0.00
2013-2-18,39,33,29,27,21,15,86,63,51,0.00,40.00,13,7,24,0.00
2013-2-19,34,29,27,28,26,24,97,90,78,0.00,40.00,12,8,31,0.17
2013-2-20,40,30,27,29,27,26,97,90,61,0.00,40.00,12,5,22,0.17
2013-2-21,34,29,26,30,27,25,97,93,81,0.00,40.00,11,7,21,0.12
2013-2-22,44,32,26,33,29,24,99,89,64,0.00,40.00,18,8,36,0.08
2013-2-23,37,28,24,30,26,22,98,92,74,0.00,40.00,17,10,37,0.23
2013-2-24,48,32,19,37,27,17,98,84,56,0.00,40.00,8,4,14,0.26
2013-2-25,37,32,27,32,28,24,98,88,68,0.00,40.00,15,10,34,0.16
2013-2-26,48,32,20,29,23,16,97,75,39,0.00,40.00,9,5,19,0.01
2013-2-27,49,37,28,32,24,16,86,62,31,0.00,40.00,14,7,31,0.01
2013-2-28,44,41,37,43,40,35,100,96,91,0.00,40.00,10,5,19,0.51